createdAt,value
2023-03-02T00:01:54.024Z,101137.91
2023-03-02T00:04:25.892Z,101150.91
2023-03-02T00:06:58.318Z,101157.94
2023-03-02T00:09:29.191Z,101155.50
2023-03-02T00:11:58.279Z,101146.97
2023-03-02T00:14:27.128Z,101154.94
2023-03-02T00:16:55.919Z,101142.16
2023-03-02T00:19:24.427Z,101153.44
2023-03-02T00:21:53.080Z,101149.22
2023-03-02T00:24:21.640Z,101129.78
2023-03-02T00:26:51.986Z,101143.34
2023-03-02T00:29:20.655Z,101138.25
2023-03-02T00:31:49.205Z,101134.16
2023-03-02T00:34:18.646Z,101131.59
2023-03-02T00:36:49.776Z,101126.47
2023-03-02T00:39:20.419Z,101128.25
2023-03-02T00:41:50.765Z,101137.78
2023-03-02T00:44:19.175Z,101130.13
2023-03-02T00:46:47.947Z,101131.81
2023-03-02T00:49:16.658Z,101132.78
2023-03-02T00:51:45.449Z,101135.50
2023-03-02T00:54:13.969Z,101111.66
2023-03-02T00:56:42.491Z,101121.88
2023-03-02T00:59:26.720Z,101127.97
2023-03-02T01:01:58.436Z,101116.00
2023-03-02T01:04:31.737Z,101120.34
2023-03-02T01:07:01.721Z,101110.91
2023-03-02T01:09:30.463Z,101117.91
2023-03-02T01:11:59.591Z,101102.41
2023-03-02T01:14:29.695Z,101111.13
2023-03-02T01:16:58.153Z,101108.81
2023-03-02T01:19:26.617Z,101104.53
2023-03-02T01:21:55.166Z,101098.53
2023-03-02T01:24:23.741Z,101075.41
2023-03-02T01:26:52.202Z,101081.41
2023-03-02T01:29:21.308Z,101080.50
2023-03-02T01:31:51.901Z,101084.06
2023-03-02T01:34:20.486Z,101082.41
2023-03-02T01:36:48.957Z,101078.19
2023-03-02T01:39:17.689Z,101073.22
2023-03-02T01:41:47.629Z,101075.75
2023-03-02T01:44:40.054Z,101079.13
2023-03-02T01:47:14.894Z,101074.03
2023-03-02T01:49:48.086Z,101068.97
2023-03-02T01:52:18.082Z,101058.66
2023-03-02T01:54:50.144Z,101058.66
2023-03-02T01:57:24.074Z,101060.47
2023-03-02T01:59:59.955Z,101057.09
2023-03-02T02:02:30.642Z,101071.88
2023-03-02T02:04:59.527Z,101048.88
2023-03-02T02:07:28.836Z,101057.31
2023-03-02T02:09:58.252Z,101054.03
2023-03-02T02:12:26.955Z,101052.34
2023-03-02T02:15:00.836Z,101048.94
2023-03-02T02:17:32.226Z,101048.94
2023-03-02T02:20:09.350Z,101049.94
2023-03-02T02:22:49.201Z,101044.91
2023-03-02T02:25:27.855Z,101054.47
2023-03-02T02:27:58.796Z,101054.56
2023-03-02T02:30:29.117Z,101050.28
2023-03-02T02:32:59.897Z,101032.41
2023-03-02T02:35:35.101Z,101040.03
2023-03-02T02:38:09.514Z,101041.81
2023-03-02T02:40:46.919Z,101030.72
2023-03-02T02:43:20.399Z,101035.06
2023-03-02T02:45:51.340Z,101031.63
2023-03-02T02:48:23.301Z,101022.25
2023-03-02T02:51:00.510Z,101027.44
2023-03-02T02:53:33.584Z,101024.06
2023-03-02T02:56:02.944Z,101024.06
2023-03-02T02:58:36.546Z,101013.81
2023-03-02T03:01:05.717Z,101029.38
2023-03-02T03:03:36.712Z,101019.19
2023-03-02T03:06:07.795Z,101023.50
2023-03-02T03:09:00.060Z,101025.31
2023-03-02T03:11:30.512Z,101023.59
2023-03-02T03:14:07.811Z,101024.56
2023-03-02T03:16:38.365Z,101034.97
2023-03-02T03:19:13.382Z,101028.97
2023-03-02T03:21:41.839Z,101021.28
2023-03-02T03:24:10.555Z,101026.59
2023-03-02T03:26:39.079Z,101025.69
2023-03-02T03:29:09.073Z,101029.97
2023-03-02T03:31:37.800Z,101019.69
2023-03-02T03:34:06.938Z,101020.59
2023-03-02T03:36:36.099Z,101015.44
2023-03-02T03:39:06.213Z,101015.50
2023-03-02T03:41:36.027Z,101019.91
2023-03-02T03:44:05.556Z,101015.63
2023-03-02T03:46:36.717Z,101015.72
2023-03-02T03:49:05.850Z,101011.44
2023-03-02T03:51:35.801Z,101013.22
2023-03-02T03:54:08.288Z,101015.81
2023-03-02T03:56:38.552Z,101014.16
2023-03-02T03:59:08.985Z,101009.81
2023-03-02T04:01:41.043Z,101012.41
2023-03-02T04:04:12.639Z,101010.88
2023-03-02T04:06:41.516Z,101000.63
2023-03-02T04:09:12.661Z,101016.06
2023-03-02T04:11:43.811Z,101023.06
2023-03-02T04:14:13.490Z,101015.31
2023-03-02T04:16:44.634Z,101015.31
2023-03-02T04:19:14.308Z,101017.09
2023-03-02T04:21:45.451Z,101015.41
2023-03-02T04:24:15.941Z,101012.88
2023-03-02T04:26:45.651Z,101006.88
2023-03-02T04:29:15.550Z,100999.09
2023-03-02T04:31:45.759Z,101011.97
2023-03-02T04:34:14.456Z,101009.41
2023-03-02T04:36:43.586Z,100986.47
2023-03-02T04:39:14.182Z,100985.69
2023-03-02T04:41:43.338Z,100984.78
2023-03-02T04:44:11.894Z,101001.00
2023-03-02T04:46:42.298Z,100999.31
2023-03-02T04:49:14.708Z,100998.53
2023-03-02T04:51:45.838Z,101003.72
2023-03-02T04:54:17.534Z,100988.34
2023-03-02T04:56:48.740Z,100978.00
2023-03-02T04:59:18.964Z,100991.75
2023-03-02T05:01:49.217Z,101000.44
2023-03-02T05:04:19.807Z,100995.31
2023-03-02T05:06:48.645Z,100995.34
2023-03-02T05:09:17.624Z,101002.34
2023-03-02T05:11:46.470Z,101002.41
2023-03-02T05:14:15.365Z,100995.53
2023-03-02T05:16:44.368Z,101000.69
2023-03-02T05:19:13.590Z,100993.84
2023-03-02T05:21:44.710Z,101001.59
2023-03-02T05:24:13.758Z,101003.31
2023-03-02T05:26:42.684Z,101006.91
2023-03-02T05:29:11.443Z,101008.69
2023-03-02T05:31:42.054Z,101005.19
2023-03-02T05:34:13.467Z,101005.28
2023-03-02T05:36:44.097Z,100987.38
2023-03-02T05:39:13.444Z,100975.41
2023-03-02T05:41:42.638Z,100985.66
2023-03-02T05:44:12.868Z,100994.25
2023-03-02T05:46:41.936Z,101001.19
2023-03-02T05:49:10.867Z,101000.41
2023-03-02T05:51:39.390Z,100996.03
2023-03-02T05:54:09.473Z,101000.50
2023-03-02T05:56:41.250Z,101009.91
2023-03-02T05:59:10.134Z,101002.97
2023-03-02T06:01:39.056Z,101008.09
2023-03-02T06:04:07.877Z,101016.69
2023-03-02T06:06:38.216Z,101006.38
2023-03-02T06:09:06.915Z,101020.06
2023-03-02T06:11:36.856Z,101019.16
2023-03-02T06:14:05.815Z,101023.47
2023-03-02T06:16:34.750Z,101016.69
2023-03-02T06:19:03.391Z,101036.31
2023-03-02T06:21:31.990Z,101036.03
2023-03-02T06:24:00.480Z,101036.75
2023-03-02T06:26:28.970Z,101030.72
2023-03-02T06:28:59.439Z,101041.84
2023-03-02T06:31:28.429Z,101036.56
2023-03-02T06:33:57.001Z,101031.25
2023-03-02T06:36:26.832Z,101026.75
2023-03-02T06:38:56.124Z,101030.75
2023-03-02T06:41:26.449Z,101039.25
2023-03-02T06:43:54.916Z,101022.19
2023-03-02T06:46:24.829Z,101039.97
2023-03-02T06:48:53.393Z,101020.19
2023-03-02T06:51:22.013Z,101042.25
2023-03-02T06:53:50.719Z,101032.50
2023-03-02T06:56:19.168Z,101034.09
2023-03-02T06:58:47.898Z,101033.97
2023-03-02T07:01:16.946Z,101032.16
2023-03-02T07:03:47.948Z,101041.75
2023-03-02T07:06:16.567Z,101038.25
2023-03-02T07:08:44.954Z,101035.53
2023-03-02T07:11:14.537Z,101040.56
2023-03-02T07:13:42.950Z,101025.69
2023-03-02T07:16:13.353Z,101038.41
2023-03-02T07:18:42.425Z,101039.13
2023-03-02T07:21:12.342Z,101033.78
2023-03-02T07:23:40.925Z,101029.09
2023-03-02T07:26:09.553Z,101034.06
2023-03-02T07:28:39.795Z,101029.53
2023-03-02T07:31:09.002Z,101023.97
2023-03-02T07:33:37.958Z,101025.34
2023-03-02T07:36:07.658Z,101026.69
2023-03-02T07:38:38.204Z,101022.97
2023-03-02T07:41:09.250Z,101025.94
2023-03-02T07:43:38.197Z,101011.06
2023-03-02T07:46:07.464Z,101020.19
2023-03-02T07:48:37.549Z,101026.44
2023-03-02T07:51:08.034Z,101026.13
2023-03-02T07:53:38.325Z,101026.41
2023-03-02T07:56:10.741Z,101015.44
2023-03-02T07:58:39.845Z,101036.31
2023-03-02T08:01:09.110Z,101021.31
2023-03-02T08:03:37.758Z,101032.50
2023-03-02T08:06:08.061Z,101028.00
2023-03-02T08:08:38.809Z,101020.44
2023-03-02T08:11:09.210Z,101027.56
2023-03-02T08:13:37.795Z,101018.19
2023-03-02T08:16:08.291Z,101009.78
2023-03-02T08:18:37.960Z,101007.53
2023-03-02T08:21:12.368Z,101006.56
2023-03-02T08:23:42.474Z,101013.03
2023-03-02T08:26:13.817Z,101012.28
2023-03-02T08:28:43.679Z,101013.28
2023-03-02T08:31:12.720Z,101020.31
2023-03-02T08:33:41.697Z,101019.59
2023-03-02T08:36:13.821Z,101020.78
2023-03-02T08:38:44.065Z,101022.25
2023-03-02T08:41:14.596Z,101023.69
2023-03-02T08:43:43.502Z,101018.06
2023-03-02T08:46:13.556Z,101015.66
2023-03-02T08:48:42.387Z,101018.56
2023-03-02T08:51:14.780Z,101018.84
2023-03-02T08:53:46.711Z,101015.28
2023-03-02T08:56:25.696Z,101008.06
2023-03-02T08:58:56.136Z,101009.56
2023-03-02T09:01:26.757Z,101003.53
2023-03-02T09:03:55.510Z,101000.16
2023-03-02T09:06:24.113Z,101003.81
2023-03-02T09:08:54.116Z,100987.94
2023-03-02T09:11:22.622Z,100997.66
2023-03-02T09:13:51.449Z,100992.56
2023-03-02T09:16:21.232Z,100988.06
2023-03-02T09:18:49.821Z,100985.50
2023-03-02T09:21:18.789Z,100986.19
2023-03-02T09:24:02.201Z,100983.84
2023-03-02T09:26:30.615Z,100986.59
2023-03-02T09:28:59.271Z,100979.97
2023-03-02T09:31:51.201Z,100983.09
2023-03-02T09:34:22.783Z,100980.00
2023-03-02T09:36:51.274Z,100982.63
2023-03-02T09:39:26.331Z,100961.25
2023-03-02T09:42:41.829Z,100964.56
2023-03-02T09:45:23.165Z,100970.09
2023-03-02T09:48:09.555Z,100961.06
2023-03-02T09:50:41.052Z,100963.88
2023-03-02T09:53:36.418Z,100961.03
2023-03-02T09:56:14.927Z,100964.00
2023-03-02T09:58:49.339Z,100960.25
2023-03-02T10:01:23.666Z,100970.19
2023-03-02T10:03:58.184Z,100961.91
2023-03-02T10:06:27.130Z,100970.13
2023-03-02T10:08:57.005Z,100957.66
2023-03-02T10:11:39.418Z,100963.53
2023-03-02T10:14:15.398Z,100968.19
2023-03-02T10:16:49.206Z,100959.59
2023-03-02T10:19:25.324Z,100957.19
2023-03-02T10:21:59.653Z,100956.38
2023-03-02T10:24:34.386Z,100958.59
2023-03-02T10:27:18.071Z,100958.38
2023-03-02T10:29:55.599Z,100951.75
2023-03-02T10:32:26.256Z,100947.25
2023-03-02T10:34:55.663Z,100951.88
2023-03-02T10:37:26.403Z,100944.19
2023-03-02T10:39:54.910Z,100946.81
2023-03-02T10:42:31.258Z,100939.13
2023-03-02T10:45:07.107Z,100935.63
2023-03-02T10:47:35.783Z,100925.81
2023-03-02T10:50:04.288Z,100938.41
2023-03-02T10:52:34.178Z,100930.72
2023-03-02T10:55:07.526Z,100907.22
2023-03-02T10:57:39.669Z,100922.66
2023-03-02T11:00:17.479Z,100911.69
2023-03-02T11:02:53.148Z,100905.00
2023-03-02T11:05:25.076Z,100908.41
2023-03-02T11:07:55.184Z,100897.69
2023-03-02T11:10:25.928Z,100903.47
2023-03-02T11:12:55.852Z,100906.72
2023-03-02T11:15:31.127Z,100891.66
2023-03-02T11:18:04.136Z,100888.19
2023-03-02T11:20:36.426Z,100895.03
2023-03-02T11:23:15.721Z,100886.38
2023-03-02T11:25:50.209Z,100876.75
2023-03-02T11:28:33.450Z,100880.94
2023-03-02T11:31:04.571Z,100864.66
2023-03-02T11:33:38.828Z,100883.81
2023-03-02T11:36:14.105Z,100874.69
2023-03-02T11:38:49.689Z,100867.47
2023-03-02T11:41:30.177Z,100869.81
2023-03-02T11:44:02.951Z,100862.47
2023-03-02T11:46:34.189Z,100858.41
2023-03-02T11:49:06.622Z,100860.53
2023-03-02T11:51:39.112Z,100859.88
2023-03-02T11:54:24.623Z,100851.47
2023-03-02T11:56:53.388Z,100847.09
2023-03-02T11:59:27.593Z,100835.72
2023-03-02T12:01:59.903Z,100839.88
2023-03-02T12:04:32.721Z,100829.53
2023-03-02T12:07:04.205Z,100832.94
2023-03-02T12:09:37.911Z,100831.91
2023-03-02T12:12:36.343Z,100825.44
2023-03-02T12:15:37.959Z,100829.13
2023-03-02T12:18:18.002Z,100823.59
2023-03-02T12:20:46.464Z,100814.16
2023-03-02T12:23:26.114Z,100813.06
2023-03-02T12:26:07.016Z,100807.63
2023-03-02T12:28:37.836Z,100809.72
2023-03-02T12:31:13.249Z,100798.94
2023-03-02T12:33:48.353Z,100802.25
2023-03-02T12:36:21.287Z,100798.53
2023-03-02T12:39:03.107Z,100802.13
2023-03-02T12:42:00.385Z,100793.53
2023-03-02T12:44:44.157Z,100795.44
2023-03-02T12:47:26.358Z,100798.69
2023-03-02T12:49:58.407Z,100797.47
2023-03-02T12:52:31.104Z,100788.81
2023-03-02T12:55:05.361Z,100795.00
2023-03-02T12:57:34.104Z,100767.84
2023-03-02T13:00:04.841Z,100782.78
2023-03-02T13:02:37.078Z,100779.81
2023-03-02T13:05:09.219Z,100775.09
2023-03-02T13:07:41.464Z,100768.09
2023-03-02T13:10:23.134Z,100773.47
2023-03-02T13:12:51.693Z,100761.66
2023-03-02T13:15:21.156Z,100767.47
2023-03-02T13:17:57.601Z,100754.81
2023-03-02T13:20:28.788Z,100755.56
2023-03-02T13:22:57.734Z,100752.81
2023-03-02T13:25:28.933Z,100748.06
2023-03-02T13:28:00.920Z,100741.53
2023-03-02T13:30:31.962Z,100741.56
2023-03-02T13:33:04.900Z,100733.63
2023-03-02T13:35:38.653Z,100734.53
2023-03-02T13:38:15.658Z,100735.47
2023-03-02T13:40:47.940Z,100725.53
2023-03-02T13:43:40.149Z,100717.38
2023-03-02T13:46:27.811Z,100723.72
2023-03-02T13:49:14.475Z,100725.72
2023-03-02T13:51:50.744Z,100717.09
2023-03-02T13:54:23.764Z,100700.44
2023-03-02T13:56:53.891Z,100707.34
2023-03-02T13:59:23.752Z,100713.00
2023-03-02T14:01:52.429Z,100690.50
2023-03-02T14:04:24.670Z,100702.16
2023-03-02T14:06:53.823Z,100685.47
2023-03-02T14:09:23.458Z,100695.84
2023-03-02T14:11:54.158Z,100682.72
2023-03-02T14:14:25.460Z,100673.25
2023-03-02T14:16:54.096Z,100677.75
2023-03-02T14:19:24.081Z,100673.41
2023-03-02T14:21:52.756Z,100670.56
2023-03-02T14:24:21.207Z,100661.91
2023-03-02T14:26:50.666Z,100668.25
2023-03-02T14:29:25.035Z,100663.88
2023-03-02T14:31:54.243Z,100645.91
2023-03-02T14:34:24.548Z,100659.69
2023-03-02T14:36:56.353Z,100641.91
2023-03-02T14:39:31.117Z,100647.91
2023-03-02T14:41:59.974Z,100651.56
2023-03-02T14:44:28.609Z,100647.56
2023-03-02T14:46:58.436Z,100640.88
2023-03-02T14:49:28.925Z,100641.34
2023-03-02T14:52:02.534Z,100634.69
2023-03-02T14:54:39.196Z,100628.22
2023-03-02T14:57:19.473Z,100641.22
2023-03-02T14:59:48.380Z,100634.03
2023-03-02T15:02:25.789Z,100628.56
2023-03-02T15:04:58.639Z,100615.34
2023-03-02T15:07:28.758Z,100630.50
2023-03-02T15:09:57.624Z,100633.84
2023-03-02T15:12:26.965Z,100626.00
2023-03-02T15:14:55.551Z,100638.16
2023-03-02T15:17:24.156Z,100629.16
2023-03-02T15:19:52.810Z,100628.66
2023-03-02T15:22:22.720Z,100622.81
2023-03-02T15:24:52.067Z,100610.34
2023-03-02T15:27:23.417Z,100635.16
2023-03-02T15:29:54.075Z,100629.16
2023-03-02T15:32:24.703Z,100620.66
2023-03-02T15:34:53.481Z,100629.16
2023-03-02T15:37:23.984Z,100622.97
2023-03-02T15:39:55.712Z,100628.13
2023-03-02T15:42:24.842Z,100621.31
2023-03-02T15:44:53.465Z,100627.59
2023-03-02T15:47:22.244Z,100617.03
2023-03-02T15:49:50.689Z,100610.31
2023-03-02T15:52:21.359Z,100613.34
2023-03-02T15:54:51.567Z,100609.69
2023-03-02T15:57:20.255Z,100614.84
2023-03-02T15:59:48.742Z,100618.97
2023-03-02T16:02:17.888Z,100619.59
2023-03-02T16:04:46.711Z,100608.09
2023-03-02T16:07:15.331Z,100616.03
2023-03-02T16:09:45.571Z,100620.78
2023-03-02T16:12:15.618Z,100615.72
2023-03-02T16:14:44.129Z,100602.31
2023-03-02T16:17:12.878Z,100623.53
2023-03-02T16:19:41.444Z,100635.53
2023-03-02T16:22:09.953Z,100613.91
2023-03-02T16:24:39.803Z,100615.91
2023-03-02T16:27:09.476Z,100627.16
2023-03-02T16:29:39.655Z,100628.34
2023-03-02T16:32:09.263Z,100634.84
2023-03-02T16:34:38.119Z,100633.41
2023-03-02T16:37:07.107Z,100637.22
2023-03-02T16:39:35.572Z,100642.06
2023-03-02T16:42:04.398Z,100646.84
2023-03-02T16:44:33.202Z,100636.13
2023-03-02T16:47:03.520Z,100627.53
2023-03-02T16:49:32.537Z,100639.00
2023-03-02T16:52:11.474Z,100651.31
2023-03-02T16:54:40.348Z,100653.09
2023-03-02T16:57:09.864Z,100658.44
2023-03-02T16:59:38.511Z,100652.72
2023-03-02T17:02:08.790Z,100645.44
2023-03-02T17:04:37.483Z,100664.53
2023-03-02T17:07:07.474Z,100664.19
2023-03-02T17:09:37.131Z,100671.69
2023-03-02T17:12:07.396Z,100682.09
2023-03-02T17:14:35.924Z,100674.09
2023-03-02T17:17:04.486Z,100681.28
2023-03-02T17:19:34.800Z,100675.41
2023-03-02T17:22:05.886Z,100681.91
2023-03-02T17:24:35.589Z,100672.63
2023-03-02T17:27:05.420Z,100663.81
2023-03-02T17:29:37.444Z,100682.72
2023-03-02T17:32:06.379Z,100687.91
2023-03-02T17:34:36.742Z,100679.47
2023-03-02T17:37:05.384Z,100692.31
2023-03-02T17:39:34.967Z,100687.19
2023-03-02T17:42:03.557Z,100697.06
2023-03-02T17:44:34.917Z,100684.16
2023-03-02T17:47:05.680Z,100693.63
2023-03-02T17:49:35.952Z,100693.75
2023-03-02T17:52:04.672Z,100689.81
2023-03-02T17:54:33.462Z,100689.19
2023-03-02T17:57:03.256Z,100685.50
2023-03-02T17:59:31.798Z,100689.31
2023-03-02T18:02:00.487Z,100692.53
2023-03-02T18:04:29.120Z,100688.22
2023-03-02T18:06:59.201Z,100697.06
2023-03-02T18:09:27.799Z,100693.47
2023-03-02T18:11:56.356Z,100696.34
2023-03-02T18:14:28.695Z,100696.09
2023-03-02T18:16:57.238Z,100688.88
2023-03-02T18:19:25.872Z,100692.47
2023-03-02T18:21:54.700Z,100678.91
2023-03-02T18:24:25.743Z,100696.28
2023-03-02T18:26:54.596Z,100692.66
2023-03-02T18:29:24.206Z,100689.28
2023-03-02T18:31:53.921Z,100701.72
2023-03-02T18:34:23.539Z,100699.53
2023-03-02T18:36:52.588Z,100685.47
2023-03-02T18:39:21.121Z,100701.25
2023-03-02T18:41:51.471Z,100706.25
2023-03-02T18:44:20.151Z,100707.56
2023-03-02T18:46:48.767Z,100703.69
2023-03-02T18:49:17.314Z,100701.31
2023-03-02T18:51:46.520Z,100716.97
2023-03-02T18:54:15.268Z,100708.56
2023-03-02T18:56:44.248Z,100709.13
2023-03-02T18:59:14.242Z,100706.94
2023-03-02T19:01:42.976Z,100708.22
2023-03-02T19:04:12.488Z,100705.06
2023-03-02T19:06:40.975Z,100706.78
2023-03-02T19:09:09.661Z,100707.75
2023-03-02T19:11:38.167Z,100704.50
2023-03-02T19:14:07.093Z,100715.00
2023-03-02T19:16:37.258Z,100713.97
2023-03-02T19:19:05.868Z,100708.69
2023-03-02T19:21:34.520Z,100717.94
2023-03-02T19:24:03.131Z,100711.69
2023-03-02T19:26:32.187Z,100716.63
2023-03-02T19:29:00.782Z,100713.88
2023-03-02T19:31:30.671Z,100709.28
2023-03-02T19:34:01.644Z,100703.69
2023-03-02T19:36:30.399Z,100723.13
2023-03-02T19:38:59.140Z,100723.75
2023-03-02T19:41:28.234Z,100701.50
2023-03-02T19:43:59.683Z,100714.63
2023-03-02T19:46:28.493Z,100725.13
2023-03-02T19:48:57.433Z,100715.78
2023-03-02T19:51:29.881Z,100714.22
2023-03-02T19:54:00.256Z,100714.59
2023-03-02T19:56:33.159Z,100717.03
2023-03-02T19:59:02.022Z,100724.25
2023-03-02T20:01:31.535Z,100726.72
2023-03-02T20:04:07.274Z,100724.50
2023-03-02T20:06:38.317Z,100718.25
2023-03-02T20:09:13.216Z,100705.09
2023-03-02T20:11:42.103Z,100722.31
2023-03-02T20:14:11.170Z,100719.53
2023-03-02T20:16:40.599Z,100721.03
2023-03-02T20:19:09.467Z,100729.25
2023-03-02T20:21:39.520Z,100717.28
2023-03-02T20:24:08.427Z,100730.34
2023-03-02T20:26:37.335Z,100731.00
2023-03-02T20:29:06.633Z,100724.91
2023-03-02T20:31:37.123Z,100720.59
2023-03-02T20:34:08.232Z,100732.38
2023-03-02T20:36:39.712Z,100720.97
2023-03-02T20:39:11.757Z,100719.94
2023-03-02T20:41:40.408Z,100716.38
2023-03-02T20:44:09.923Z,100710.28
2023-03-02T20:46:41.691Z,100720.97
2023-03-02T20:49:15.251Z,100722.66
2023-03-02T20:51:51.399Z,100699.63
2023-03-02T20:54:21.004Z,100707.69
2023-03-02T20:56:49.694Z,100706.22
2023-03-02T20:59:18.462Z,100718.94
2023-03-02T21:01:47.629Z,100722.41
2023-03-02T21:04:16.254Z,100699.47
2023-03-02T21:06:47.120Z,100711.06
2023-03-02T21:09:18.385Z,100695.09
2023-03-02T21:11:50.687Z,100711.25
2023-03-02T21:14:19.455Z,100700.34
2023-03-02T21:16:47.925Z,100708.94
2023-03-02T21:19:18.718Z,100708.09
2023-03-02T21:21:48.705Z,100706.31
2023-03-02T21:24:18.107Z,100707.06
2023-03-02T21:26:47.858Z,100692.84
2023-03-02T21:29:17.639Z,100706.22
2023-03-02T21:31:48.578Z,100691.38
2023-03-02T21:34:19.112Z,100697.25
2023-03-02T21:36:58.344Z,100702.03
2023-03-02T21:39:29.294Z,100696.88
2023-03-02T21:42:03.189Z,100688.09
2023-03-02T21:44:44.681Z,100675.09
2023-03-02T21:47:13.471Z,100661.38
2023-03-02T21:49:42.105Z,100677.63
2023-03-02T21:52:12.183Z,100679.59
2023-03-02T21:54:40.769Z,100679.31
2023-03-02T21:57:09.910Z,100672.41
2023-03-02T21:59:38.712Z,100672.97
2023-03-02T22:02:07.241Z,100680.81
2023-03-02T22:04:35.815Z,100678.38
2023-03-02T22:07:06.474Z,100664.00
2023-03-02T22:09:36.430Z,100671.91
2023-03-02T22:12:13.514Z,100681.19
2023-03-02T22:14:42.544Z,100668.75
2023-03-02T22:17:18.997Z,100675.41
2023-03-02T22:19:47.942Z,100679.97
2023-03-02T22:22:19.199Z,100685.31
2023-03-02T22:24:52.183Z,100678.41
2023-03-02T22:27:25.076Z,100690.56
2023-03-02T22:29:57.968Z,100665.13
2023-03-02T22:32:28.728Z,100671.75
2023-03-02T22:34:59.316Z,100674.53
2023-03-02T22:37:30.571Z,100665.94
2023-03-02T22:40:08.487Z,100668.50
2023-03-02T22:42:37.022Z,100652.22
2023-03-02T22:45:15.006Z,100672.78
2023-03-02T22:47:44.572Z,100670.44
2023-03-02T22:50:23.922Z,100673.16
2023-03-02T22:52:53.628Z,100668.56
2023-03-02T22:55:37.714Z,100664.63
2023-03-02T22:58:44.223Z,100668.09
2023-03-02T23:01:23.042Z,100654.16
2023-03-02T23:03:53.828Z,100653.31
2023-03-02T23:06:32.204Z,100663.78
2023-03-02T23:09:02.942Z,100657.06
2023-03-02T23:11:37.771Z,100646.09
2023-03-02T23:14:15.493Z,100640.91
2023-03-02T23:16:43.984Z,100646.16
2023-03-02T23:19:12.550Z,100642.78
2023-03-02T23:21:42.872Z,100659.63
2023-03-02T23:24:11.363Z,100652.53
2023-03-02T23:26:42.315Z,100637.19
2023-03-02T23:29:10.911Z,100651.50
2023-03-02T23:31:40.161Z,100641.69
2023-03-02T23:34:08.701Z,100638.31
2023-03-02T23:36:37.819Z,100639.81
2023-03-02T23:39:07.135Z,100651.81
2023-03-02T23:41:36.502Z,100644.72
2023-03-02T23:44:09.320Z,100653.41
2023-03-02T23:46:37.796Z,100644.72
2023-03-02T23:49:06.393Z,100633.66
2023-03-02T23:51:35.282Z,100641.34
2023-03-02T23:54:04.797Z,100648.09
2023-03-02T23:56:33.570Z,100648.84
2023-03-02T23:59:02.512Z,100647.78
